< < Back
Terminal Aerodrome Forecast


Current Version              Previous Versions:   1  2  3  4  5  6  7  8  9  

Terminal Aerodrome Forecast

190
FTUS42 KJAX 191100
TAFSSI
TAF
KSSI 191120Z 1912/2012 35003KT P6SM SCT100 BKN200
     FM191600 06006KT P6SM SCT040 BKN150
     FM200100 05003KT P6SM BKN070 BKN200=



Latest METAR

340
SAUS70 KWBC 200800 RRJ
MTRSSI
METAR KSSI 200753Z AUTO 01003KT 9SM -RA SCT055 OVC090 12/11 A3012 RMK
AO2 RAB31 SLP198 P0001 T01220106


USA.gov is the U.S. government's official web portal to all federal, state and local government web resources and services.